sensor_id;sensor_type;location;lat;lon;timestamp;P1;durP1;ratioP1;P2;durP2;ratioP2
59659;SDS011;45534;52.690;6.268;2024-02-14T00:02:23;10.43;;;5.30;;
59659;SDS011;45534;52.690;6.268;2024-02-14T00:04:51;6.43;;;5.07;;
59659;SDS011;45534;52.690;6.268;2024-02-14T00:07:20;9.40;;;5.85;;
59659;SDS011;45534;52.690;6.268;2024-02-14T00:09:46;10.13;;;7.15;;
59659;SDS011;45534;52.690;6.268;2024-02-14T00:12:12;6.22;;;5.13;;
59659;SDS011;45534;52.690;6.268;2024-02-14T00:14:38;7.95;;;6.47;;
59659;SDS011;45534;52.690;6.268;2024-02-14T00:17:04;8.88;;;6.28;;
59659;SDS011;45534;52.690;6.268;2024-02-14T00:19:31;10.00;;;6.03;;
59659;SDS011;45534;52.690;6.268;2024-02-14T00:21:56;12.68;;;6.35;;
59659;SDS011;45534;52.690;6.268;2024-02-14T00:24:22;8.93;;;5.18;;
59659;SDS011;45534;52.690;6.268;2024-02-14T00:26:49;9.77;;;7.35;;
59659;SDS011;45534;52.690;6.268;2024-02-14T00:29:17;7.03;;;6.07;;
59659;SDS011;45534;52.690;6.268;2024-02-14T00:31:43;6.97;;;6.07;;
59659;SDS011;45534;52.690;6.268;2024-02-14T00:34:09;9.80;;;7.68;;
59659;SDS011;45534;52.690;6.268;2024-02-14T00:36:36;7.00;;;5.35;;
59659;SDS011;45534;52.690;6.268;2024-02-14T00:39:01;6.28;;;4.93;;
59659;SDS011;45534;52.690;6.268;2024-02-14T00:41:28;10.00;;;5.82;;
59659;SDS011;45534;52.690;6.268;2024-02-14T00:43:57;7.47;;;6.50;;
59659;SDS011;45534;52.690;6.268;2024-02-14T00:46:23;8.50;;;5.03;;
59659;SDS011;45534;52.690;6.268;2024-02-14T00:48:49;6.72;;;5.85;;
59659;SDS011;45534;52.690;6.268;2024-02-14T00:51:15;7.80;;;5.82;;
59659;SDS011;45534;52.690;6.268;2024-02-14T00:53:41;5.45;;;4.30;;
59659;SDS011;45534;52.690;6.268;2024-02-14T00:56:06;5.25;;;3.45;;
59659;SDS011;45534;52.690;6.268;2024-02-14T00:58:32;6.93;;;5.32;;
59659;SDS011;45534;52.690;6.268;2024-02-14T01:00:58;7.20;;;5.30;;
59659;SDS011;45534;52.690;6.268;2024-02-14T01:03:24;6.13;;;5.53;;
59659;SDS011;45534;52.690;6.268;2024-02-14T01:05:49;7.60;;;5.25;;
59659;SDS011;45534;52.690;6.268;2024-02-14T01:08:15;7.22;;;5.38;;
59659;SDS011;45534;52.690;6.268;2024-02-14T01:10:42;6.45;;;5.30;;
59659;SDS011;45534;52.690;6.268;2024-02-14T01:13:07;5.63;;;5.03;;
59659;SDS011;45534;52.690;6.268;2024-02-14T01:15:33;9.63;;;6.68;;
59659;SDS011;45534;52.690;6.268;2024-02-14T01:17:59;6.45;;;5.72;;
59659;SDS011;45534;52.690;6.268;2024-02-14T01:20:25;7.05;;;4.63;;
59659;SDS011;45534;52.690;6.268;2024-02-14T01:22:51;10.65;;;6.05;;
59659;SDS011;45534;52.690;6.268;2024-02-14T01:25:17;9.38;;;5.05;;
59659;SDS011;45534;52.690;6.268;2024-02-14T01:27:43;6.85;;;4.85;;
59659;SDS011;45534;52.690;6.268;2024-02-14T01:30:09;10.45;;;5.78;;
59659;SDS011;45534;52.690;6.268;2024-02-14T01:32:36;8.48;;;6.43;;
59659;SDS011;45534;52.690;6.268;2024-02-14T01:35:02;6.63;;;4.45;;
59659;SDS011;45534;52.690;6.268;2024-02-14T01:37:29;6.03;;;5.05;;
59659;SDS011;45534;52.690;6.268;2024-02-14T01:39:55;6.50;;;5.28;;
59659;SDS011;45534;52.690;6.268;2024-02-14T01:42:21;7.90;;;4.65;;
59659;SDS011;45534;52.690;6.268;2024-02-14T01:44:46;12.75;;;5.00;;
59659;SDS011;45534;52.690;6.268;2024-02-14T01:47:12;7.35;;;5.63;;
59659;SDS011;45534;52.690;6.268;2024-02-14T01:49:38;6.20;;;5.00;;
59659;SDS011;45534;52.690;6.268;2024-02-14T01:52:04;7.32;;;4.95;;
59659;SDS011;45534;52.690;6.268;2024-02-14T01:54:31;7.20;;;5.22;;
59659;SDS011;45534;52.690;6.268;2024-02-14T01:56:58;6.93;;;5.53;;
59659;SDS011;45534;52.690;6.268;2024-02-14T01:59:25;4.88;;;4.20;;
59659;SDS011;45534;52.690;6.268;2024-02-14T02:01:51;5.38;;;4.53;;
59659;SDS011;45534;52.690;6.268;2024-02-14T02:04:17;6.95;;;4.85;;
59659;SDS011;45534;52.690;6.268;2024-02-14T02:06:44;5.30;;;4.25;;
59659;SDS011;45534;52.690;6.268;2024-02-14T02:09:09;4.95;;;4.35;;
59659;SDS011;45534;52.690;6.268;2024-02-14T02:11:51;5.15;;;4.15;;
59659;SDS011;45534;52.690;6.268;2024-02-14T02:14:21;6.97;;;4.95;;
59659;SDS011;45534;52.690;6.268;2024-02-14T02:16:47;6.38;;;4.88;;
59659;SDS011;45534;52.690;6.268;2024-02-14T02:19:13;5.43;;;3.63;;
59659;SDS011;45534;52.690;6.268;2024-02-14T02:21:41;4.97;;;3.92;;
59659;SDS011;45534;52.690;6.268;2024-02-14T02:24:08;4.45;;;3.55;;
59659;SDS011;45534;52.690;6.268;2024-02-14T02:26:33;5.45;;;4.43;;
59659;SDS011;45534;52.690;6.268;2024-02-14T02:28:59;7.18;;;5.10;;
59659;SDS011;45534;52.690;6.268;2024-02-14T02:31:25;5.88;;;4.05;;
59659;SDS011;45534;52.690;6.268;2024-02-14T02:33:51;6.70;;;5.35;;
59659;SDS011;45534;52.690;6.268;2024-02-14T02:36:17;4.90;;;4.50;;
59659;SDS011;45534;52.690;6.268;2024-02-14T02:38:43;6.63;;;3.72;;
59659;SDS011;45534;52.690;6.268;2024-02-14T02:41:09;6.45;;;4.32;;
59659;SDS011;45534;52.690;6.268;2024-02-14T02:43:35;5.45;;;3.95;;
59659;SDS011;45534;52.690;6.268;2024-02-14T02:46:01;6.43;;;4.68;;
59659;SDS011;45534;52.690;6.268;2024-02-14T02:48:27;5.30;;;3.95;;
59659;SDS011;45534;52.690;6.268;2024-02-14T02:50:53;6.38;;;4.80;;
59659;SDS011;45534;52.690;6.268;2024-02-14T02:53:18;4.47;;;3.90;;
59659;SDS011;45534;52.690;6.268;2024-02-14T02:55:44;4.28;;;3.75;;
59659;SDS011;45534;52.690;6.268;2024-02-14T02:58:10;4.70;;;3.78;;
59659;SDS011;45534;52.690;6.268;2024-02-14T03:00:36;4.40;;;3.80;;
59659;SDS011;45534;52.690;6.268;2024-02-14T03:03:02;5.90;;;5.13;;
59659;SDS011;45534;52.690;6.268;2024-02-14T03:05:30;4.10;;;3.70;;
59659;SDS011;45534;52.690;6.268;2024-02-14T03:07:58;8.75;;;5.97;;
59659;SDS011;45534;52.690;6.268;2024-02-14T03:10:25;6.45;;;5.03;;
59659;SDS011;45534;52.690;6.268;2024-02-14T03:12:51;5.47;;;4.88;;
59659;SDS011;45534;52.690;6.268;2024-02-14T03:15:20;10.68;;;5.32;;
59659;SDS011;45534;52.690;6.268;2024-02-14T03:17:45;8.00;;;5.45;;
59659;SDS011;45534;52.690;6.268;2024-02-14T03:20:12;8.13;;;5.95;;
59659;SDS011;45534;52.690;6.268;2024-02-14T03:22:41;6.00;;;4.30;;
59659;SDS011;45534;52.690;6.268;2024-02-14T03:25:13;5.75;;;4.50;;
59659;SDS011;45534;52.690;6.268;2024-02-14T03:27:41;9.70;;;7.00;;
59659;SDS011;45534;52.690;6.268;2024-02-14T03:30:10;9.68;;;5.90;;
59659;SDS011;45534;52.690;6.268;2024-02-14T03:32:37;7.53;;;5.03;;
59659;SDS011;45534;52.690;6.268;2024-02-14T03:35:04;6.03;;;4.75;;
59659;SDS011;45534;52.690;6.268;2024-02-14T03:37:29;7.07;;;4.82;;
59659;SDS011;45534;52.690;6.268;2024-02-14T03:39:56;11.95;;;6.70;;
59659;SDS011;45534;52.690;6.268;2024-02-14T03:42:22;6.70;;;4.57;;
59659;SDS011;45534;52.690;6.268;2024-02-14T03:44:48;6.47;;;5.25;;
59659;SDS011;45534;52.690;6.268;2024-02-14T03:47:16;4.70;;;4.05;;
59659;SDS011;45534;52.690;6.268;2024-02-14T03:49:45;7.15;;;5.00;;
59659;SDS011;45534;52.690;6.268;2024-02-14T03:52:10;9.38;;;4.70;;
59659;SDS011;45534;52.690;6.268;2024-02-14T03:54:36;5.53;;;4.00;;
59659;SDS011;45534;52.690;6.268;2024-02-14T03:57:02;13.68;;;8.85;;
59659;SDS011;45534;52.690;6.268;2024-02-14T03:59:30;6.20;;;5.30;;
59659;SDS011;45534;52.690;6.268;2024-02-14T04:01:56;8.00;;;6.47;;
59659;SDS011;45534;52.690;6.268;2024-02-14T04:04:23;7.97;;;6.43;;
59659;SDS011;45534;52.690;6.268;2024-02-14T04:06:49;7.20;;;5.82;;
59659;SDS011;45534;52.690;6.268;2024-02-14T04:09:15;11.10;;;8.75;;
59659;SDS011;45534;52.690;6.268;2024-02-14T04:11:40;10.88;;;5.95;;
59659;SDS011;45534;52.690;6.268;2024-02-14T04:14:06;8.52;;;5.13;;
59659;SDS011;45534;52.690;6.268;2024-02-14T04:16:32;10.57;;;7.30;;
59659;SDS011;45534;52.690;6.268;2024-02-14T04:18:58;8.27;;;5.90;;
59659;SDS011;45534;52.690;6.268;2024-02-14T04:21:23;9.75;;;6.88;;
59659;SDS011;45534;52.690;6.268;2024-02-14T04:23:49;11.73;;;9.93;;
59659;SDS011;45534;52.690;6.268;2024-02-14T04:26:19;6.18;;;5.57;;
59659;SDS011;45534;52.690;6.268;2024-02-14T04:28:45;10.23;;;7.00;;
59659;SDS011;45534;52.690;6.268;2024-02-14T04:31:11;6.35;;;4.60;;
59659;SDS011;45534;52.690;6.268;2024-02-14T04:33:36;9.10;;;6.97;;
59659;SDS011;45534;52.690;6.268;2024-02-14T04:36:02;10.15;;;7.10;;
59659;SDS011;45534;52.690;6.268;2024-02-14T04:38:31;10.13;;;5.95;;
59659;SDS011;45534;52.690;6.268;2024-02-14T04:40:57;8.55;;;6.22;;
59659;SDS011;45534;52.690;6.268;2024-02-14T04:43:23;10.13;;;6.25;;
59659;SDS011;45534;52.690;6.268;2024-02-14T04:45:51;8.85;;;6.45;;
59659;SDS011;45534;52.690;6.268;2024-02-14T04:48:20;9.02;;;7.25;;
59659;SDS011;45534;52.690;6.268;2024-02-14T04:50:46;9.68;;;7.40;;
59659;SDS011;45534;52.690;6.268;2024-02-14T04:53:11;9.27;;;5.00;;
59659;SDS011;45534;52.690;6.268;2024-02-14T04:55:37;7.75;;;6.03;;
59659;SDS011;45534;52.690;6.268;2024-02-14T04:58:03;9.38;;;5.68;;
59659;SDS011;45534;52.690;6.268;2024-02-14T05:00:30;12.73;;;8.45;;
59659;SDS011;45534;52.690;6.268;2024-02-14T05:02:55;7.82;;;4.60;;
59659;SDS011;45534;52.690;6.268;2024-02-14T05:05:22;8.25;;;6.57;;
59659;SDS011;45534;52.690;6.268;2024-02-14T05:07:48;7.70;;;4.97;;
59659;SDS011;45534;52.690;6.268;2024-02-14T05:10:13;6.53;;;4.55;;
59659;SDS011;45534;52.690;6.268;2024-02-14T05:12:40;7.40;;;5.40;;
59659;SDS011;45534;52.690;6.268;2024-02-14T05:15:06;9.55;;;6.32;;
59659;SDS011;45534;52.690;6.268;2024-02-14T05:17:33;7.22;;;5.82;;
59659;SDS011;45534;52.690;6.268;2024-02-14T05:19:59;9.13;;;6.47;;
59659;SDS011;45534;52.690;6.268;2024-02-14T05:22:25;6.15;;;4.95;;
59659;SDS011;45534;52.690;6.268;2024-02-14T05:24:51;10.80;;;6.47;;
59659;SDS011;45534;52.690;6.268;2024-02-14T05:27:17;8.63;;;5.65;;
59659;SDS011;45534;52.690;6.268;2024-02-14T05:29:42;8.68;;;6.72;;
59659;SDS011;45534;52.690;6.268;2024-02-14T05:32:08;11.50;;;7.47;;
59659;SDS011;45534;52.690;6.268;2024-02-14T05:34:37;8.38;;;5.63;;
59659;SDS011;45534;52.690;6.268;2024-02-14T05:37:03;8.25;;;6.32;;
59659;SDS011;45534;52.690;6.268;2024-02-14T05:39:30;10.55;;;5.85;;
59659;SDS011;45534;52.690;6.268;2024-02-14T05:41:56;9.32;;;5.30;;
59659;SDS011;45534;52.690;6.268;2024-02-14T05:44:21;10.10;;;6.43;;
59659;SDS011;45534;52.690;6.268;2024-02-14T05:46:47;9.02;;;8.13;;
59659;SDS011;45534;52.690;6.268;2024-02-14T05:49:13;9.15;;;6.38;;
59659;SDS011;45534;52.690;6.268;2024-02-14T05:51:39;10.05;;;7.05;;
59659;SDS011;45534;52.690;6.268;2024-02-14T05:54:06;8.30;;;5.90;;
59659;SDS011;45534;52.690;6.268;2024-02-14T05:56:31;9.68;;;6.25;;
59659;SDS011;45534;52.690;6.268;2024-02-14T05:58:57;7.40;;;5.45;;
59659;SDS011;45534;52.690;6.268;2024-02-14T06:01:23;9.60;;;6.25;;
59659;SDS011;45534;52.690;6.268;2024-02-14T06:03:48;13.98;;;7.47;;
59659;SDS011;45534;52.690;6.268;2024-02-14T06:06:14;12.10;;;7.93;;
59659;SDS011;45534;52.690;6.268;2024-02-14T06:08:40;8.88;;;7.95;;
59659;SDS011;45534;52.690;6.268;2024-02-14T06:11:05;14.00;;;8.73;;
59659;SDS011;45534;52.690;6.268;2024-02-14T06:13:31;10.18;;;6.78;;
59659;SDS011;45534;52.690;6.268;2024-02-14T06:15:57;10.38;;;7.95;;
59659;SDS011;45534;52.690;6.268;2024-02-14T06:18:22;19.00;;;7.60;;
59659;SDS011;45534;52.690;6.268;2024-02-14T06:20:48;19.27;;;9.90;;
59659;SDS011;45534;52.690;6.268;2024-02-14T06:23:14;22.13;;;12.00;;
59659;SDS011;45534;52.690;6.268;2024-02-14T06:25:40;12.18;;;7.53;;
59659;SDS011;45534;52.690;6.268;2024-02-14T06:28:06;20.25;;;6.93;;
59659;SDS011;45534;52.690;6.268;2024-02-14T06:30:31;11.95;;;7.63;;
59659;SDS011;45534;52.690;6.268;2024-02-14T06:32:57;25.10;;;13.23;;
59659;SDS011;45534;52.690;6.268;2024-02-14T06:35:25;16.65;;;8.93;;
59659;SDS011;45534;52.690;6.268;2024-02-14T06:37:51;12.35;;;8.10;;
59659;SDS011;45534;52.690;6.268;2024-02-14T06:40:17;14.75;;;10.07;;
59659;SDS011;45534;52.690;6.268;2024-02-14T06:42:43;11.38;;;8.10;;
59659;SDS011;45534;52.690;6.268;2024-02-14T06:45:08;14.13;;;10.20;;
59659;SDS011;45534;52.690;6.268;2024-02-14T06:47:34;12.27;;;8.73;;
59659;SDS011;45534;52.690;6.268;2024-02-14T06:50:00;12.48;;;9.32;;
59659;SDS011;45534;52.690;6.268;2024-02-14T06:52:25;20.08;;;11.65;;
59659;SDS011;45534;52.690;6.268;2024-02-14T06:54:51;24.63;;;13.13;;
59659;SDS011;45534;52.690;6.268;2024-02-14T06:57:17;18.95;;;9.57;;
59659;SDS011;45534;52.690;6.268;2024-02-14T06:59:43;15.35;;;10.40;;
59659;SDS011;45534;52.690;6.268;2024-02-14T07:02:08;14.60;;;10.50;;
59659;SDS011;45534;52.690;6.268;2024-02-14T07:04:34;13.00;;;9.63;;
59659;SDS011;45534;52.690;6.268;2024-02-14T07:06:59;15.63;;;9.40;;
59659;SDS011;45534;52.690;6.268;2024-02-14T07:09:25;12.27;;;9.45;;
59659;SDS011;45534;52.690;6.268;2024-02-14T07:11:51;16.95;;;13.00;;
59659;SDS011;45534;52.690;6.268;2024-02-14T07:14:22;19.73;;;12.93;;
59659;SDS011;45534;52.690;6.268;2024-02-14T07:16:48;21.25;;;11.50;;
59659;SDS011;45534;52.690;6.268;2024-02-14T07:19:14;22.77;;;15.05;;
59659;SDS011;45534;52.690;6.268;2024-02-14T07:21:39;13.68;;;9.07;;
59659;SDS011;45534;52.690;6.268;2024-02-14T07:24:05;24.38;;;15.00;;
59659;SDS011;45534;52.690;6.268;2024-02-14T07:26:31;25.15;;;11.77;;
59659;SDS011;45534;52.690;6.268;2024-02-14T07:28:56;19.35;;;12.27;;
59659;SDS011;45534;52.690;6.268;2024-02-14T07:31:22;24.27;;;17.50;;
59659;SDS011;45534;52.690;6.268;2024-02-14T07:33:48;17.27;;;10.23;;
59659;SDS011;45534;52.690;6.268;2024-02-14T07:36:18;24.42;;;13.15;;
59659;SDS011;45534;52.690;6.268;2024-02-14T07:38:44;18.23;;;14.30;;
59659;SDS011;45534;52.690;6.268;2024-02-14T07:41:10;21.38;;;12.80;;
59659;SDS011;45534;52.690;6.268;2024-02-14T07:43:35;22.98;;;15.88;;
59659;SDS011;45534;52.690;6.268;2024-02-14T07:46:01;14.63;;;10.18;;
59659;SDS011;45534;52.690;6.268;2024-02-14T07:48:27;16.40;;;10.35;;
59659;SDS011;45534;52.690;6.268;2024-02-14T07:50:52;19.42;;;11.90;;
59659;SDS011;45534;52.690;6.268;2024-02-14T07:53:18;17.85;;;12.40;;
59659;SDS011;45534;52.690;6.268;2024-02-14T07:55:44;25.15;;;12.80;;
59659;SDS011;45534;52.690;6.268;2024-02-14T07:58:09;19.73;;;14.13;;
59659;SDS011;45534;52.690;6.268;2024-02-14T08:00:35;24.27;;;14.13;;
59659;SDS011;45534;52.690;6.268;2024-02-14T08:03:01;20.35;;;16.30;;
59659;SDS011;45534;52.690;6.268;2024-02-14T08:05:28;19.65;;;11.23;;
59659;SDS011;45534;52.690;6.268;2024-02-14T08:07:54;14.05;;;11.45;;
59659;SDS011;45534;52.690;6.268;2024-02-14T08:10:20;24.15;;;18.38;;
59659;SDS011;45534;52.690;6.268;2024-02-14T08:12:45;27.98;;;13.75;;
59659;SDS011;45534;52.690;6.268;2024-02-14T08:15:12;33.63;;;17.40;;
59659;SDS011;45534;52.690;6.268;2024-02-14T08:17:38;25.70;;;13.70;;
59659;SDS011;45534;52.690;6.268;2024-02-14T08:20:04;18.95;;;12.35;;
59659;SDS011;45534;52.690;6.268;2024-02-14T08:22:30;22.95;;;14.23;;
59659;SDS011;45534;52.690;6.268;2024-02-14T08:24:56;19.98;;;13.32;;
59659;SDS011;45534;52.690;6.268;2024-02-14T08:27:23;18.27;;;13.00;;
59659;SDS011;45534;52.690;6.268;2024-02-14T08:29:48;13.65;;;10.13;;
59659;SDS011;45534;52.690;6.268;2024-02-14T08:32:14;20.20;;;9.55;;
59659;SDS011;45534;52.690;6.268;2024-02-14T08:34:40;11.23;;;7.70;;
59659;SDS011;45534;52.690;6.268;2024-02-14T08:37:06;16.17;;;11.43;;
59659;SDS011;45534;52.690;6.268;2024-02-14T08:39:33;12.57;;;9.57;;
59659;SDS011;45534;52.690;6.268;2024-02-14T08:41:59;17.75;;;10.68;;
59659;SDS011;45534;52.690;6.268;2024-02-14T08:44:28;13.93;;;7.85;;
59659;SDS011;45534;52.690;6.268;2024-02-14T08:46:57;8.95;;;7.57;;
59659;SDS011;45534;52.690;6.268;2024-02-14T08:49:22;15.18;;;10.55;;
59659;SDS011;45534;52.690;6.268;2024-02-14T08:51:48;11.07;;;8.50;;
59659;SDS011;45534;52.690;6.268;2024-02-14T08:54:14;13.23;;;9.10;;
59659;SDS011;45534;52.690;6.268;2024-02-14T08:56:41;16.98;;;9.00;;
59659;SDS011;45534;52.690;6.268;2024-02-14T08:59:06;15.73;;;12.70;;
59659;SDS011;45534;52.690;6.268;2024-02-14T09:01:32;26.67;;;16.02;;
59659;SDS011;45534;52.690;6.268;2024-02-14T09:03:58;16.75;;;11.65;;
59659;SDS011;45534;52.690;6.268;2024-02-14T09:06:24;13.85;;;10.70;;
59659;SDS011;45534;52.690;6.268;2024-02-14T09:08:51;22.30;;;11.93;;
59659;SDS011;45534;52.690;6.268;2024-02-14T09:11:18;23.25;;;14.77;;
59659;SDS011;45534;52.690;6.268;2024-02-14T09:13:44;17.23;;;9.93;;
59659;SDS011;45534;52.690;6.268;2024-02-14T09:16:12;17.92;;;13.20;;
59659;SDS011;45534;52.690;6.268;2024-02-14T09:18:41;25.40;;;17.63;;
59659;SDS011;45534;52.690;6.268;2024-02-14T09:21:09;25.00;;;12.90;;
59659;SDS011;45534;52.690;6.268;2024-02-14T09:23:35;22.40;;;12.75;;
59659;SDS011;45534;52.690;6.268;2024-02-14T09:26:04;19.00;;;12.70;;
59659;SDS011;45534;52.690;6.268;2024-02-14T09:28:29;24.98;;;17.50;;
59659;SDS011;45534;52.690;6.268;2024-02-14T09:30:55;36.50;;;17.80;;
59659;SDS011;45534;52.690;6.268;2024-02-14T09:33:21;20.02;;;14.48;;
59659;SDS011;45534;52.690;6.268;2024-02-14T09:35:46;22.20;;;11.82;;
59659;SDS011;45534;52.690;6.268;2024-02-14T09:38:13;19.65;;;12.65;;
59659;SDS011;45534;52.690;6.268;2024-02-14T09:40:42;25.40;;;15.90;;
59659;SDS011;45534;52.690;6.268;2024-02-14T09:43:50;25.17;;;16.35;;
59659;SDS011;45534;52.690;6.268;2024-02-14T09:46:01;21.20;;;12.80;;
59659;SDS011;45534;52.690;6.268;2024-02-14T09:48:29;25.98;;;19.95;;
59659;SDS011;45534;52.690;6.268;2024-02-14T09:50:55;17.80;;;11.40;;
59659;SDS011;45534;52.690;6.268;2024-02-14T09:53:22;12.68;;;8.38;;
59659;SDS011;45534;52.690;6.268;2024-02-14T09:55:51;15.88;;;11.40;;
59659;SDS011;45534;52.690;6.268;2024-02-14T09:58:18;17.65;;;13.25;;
59659;SDS011;45534;52.690;6.268;2024-02-14T10:00:45;21.35;;;15.10;;
59659;SDS011;45534;52.690;6.268;2024-02-14T10:03:10;21.45;;;13.13;;
59659;SDS011;45534;52.690;6.268;2024-02-14T10:05:36;19.50;;;14.27;;
59659;SDS011;45534;52.690;6.268;2024-02-14T10:08:02;23.25;;;13.50;;
59659;SDS011;45534;52.690;6.268;2024-02-14T10:10:28;21.13;;;13.82;;
59659;SDS011;45534;52.690;6.268;2024-02-14T10:12:57;26.67;;;13.00;;
59659;SDS011;45534;52.690;6.268;2024-02-14T10:15:23;25.60;;;13.63;;
59659;SDS011;45534;52.690;6.268;2024-02-14T10:17:49;21.23;;;14.07;;
59659;SDS011;45534;52.690;6.268;2024-02-14T10:20:17;24.50;;;17.92;;
59659;SDS011;45534;52.690;6.268;2024-02-14T10:22:46;25.58;;;18.30;;
59659;SDS011;45534;52.690;6.268;2024-02-14T10:25:13;31.92;;;17.60;;
59659;SDS011;45534;52.690;6.268;2024-02-14T10:27:40;28.70;;;19.33;;
59659;SDS011;45534;52.690;6.268;2024-02-14T10:30:09;29.48;;;17.52;;
59659;SDS011;45534;52.690;6.268;2024-02-14T10:32:35;20.15;;;15.30;;
59659;SDS011;45534;52.690;6.268;2024-02-14T10:35:03;17.77;;;12.80;;
59659;SDS011;45534;52.690;6.268;2024-02-14T10:37:33;18.90;;;15.40;;
59659;SDS011;45534;52.690;6.268;2024-02-14T10:40:01;17.38;;;13.80;;
59659;SDS011;45534;52.690;6.268;2024-02-14T10:42:28;19.27;;;10.85;;
59659;SDS011;45534;52.690;6.268;2024-02-14T10:44:54;20.02;;;11.35;;
59659;SDS011;45534;52.690;6.268;2024-02-14T10:47:20;19.23;;;9.40;;
59659;SDS011;45534;52.690;6.268;2024-02-14T10:49:50;18.70;;;10.68;;
59659;SDS011;45534;52.690;6.268;2024-02-14T10:52:17;17.23;;;12.50;;
59659;SDS011;45534;52.690;6.268;2024-02-14T10:54:47;21.77;;;12.80;;
59659;SDS011;45534;52.690;6.268;2024-02-14T10:57:24;13.23;;;9.63;;
59659;SDS011;45534;52.690;6.268;2024-02-14T10:59:50;13.88;;;10.20;;
59659;SDS011;45534;52.690;6.268;2024-02-14T11:02:18;15.43;;;9.40;;
59659;SDS011;45534;52.690;6.268;2024-02-14T11:04:45;12.15;;;9.32;;
59659;SDS011;45534;52.690;6.268;2024-02-14T11:07:11;16.50;;;11.50;;
59659;SDS011;45534;52.690;6.268;2024-02-14T11:09:38;14.70;;;11.02;;
59659;SDS011;45534;52.690;6.268;2024-02-14T11:12:08;13.30;;;9.63;;
59659;SDS011;45534;52.690;6.268;2024-02-14T11:14:35;12.65;;;9.07;;
59659;SDS011;45534;52.690;6.268;2024-02-14T11:17:08;13.38;;;9.30;;
59659;SDS011;45534;52.690;6.268;2024-02-14T11:19:35;11.05;;;8.05;;
59659;SDS011;45534;52.690;6.268;2024-02-14T11:25:05;10.43;;;7.22;;
59659;SDS011;45534;52.690;6.268;2024-02-14T11:27:32;16.00;;;9.93;;
59659;SDS011;45534;52.690;6.268;2024-02-14T11:29:58;10.30;;;6.78;;
59659;SDS011;45534;52.690;6.268;2024-02-14T11:32:27;9.88;;;5.82;;
59659;SDS011;45534;52.690;6.268;2024-02-14T11:34:56;13.18;;;10.32;;
59659;SDS011;45534;52.690;6.268;2024-02-14T11:37:30;8.45;;;6.55;;
59659;SDS011;45534;52.690;6.268;2024-02-14T11:39:56;10.32;;;7.25;;
59659;SDS011;45534;52.690;6.268;2024-02-14T11:42:23;10.90;;;6.75;;
59659;SDS011;45534;52.690;6.268;2024-02-14T11:44:49;12.15;;;7.85;;
59659;SDS011;45534;52.690;6.268;2024-02-14T11:47:15;10.40;;;8.30;;
59659;SDS011;45534;52.690;6.268;2024-02-14T11:49:41;12.43;;;8.05;;
59659;SDS011;45534;52.690;6.268;2024-02-14T11:52:11;7.72;;;6.45;;
59659;SDS011;45534;52.690;6.268;2024-02-14T11:54:37;12.40;;;8.63;;
59659;SDS011;45534;52.690;6.268;2024-02-14T11:57:03;11.80;;;9.50;;
59659;SDS011;45534;52.690;6.268;2024-02-14T11:59:29;12.32;;;7.85;;
59659;SDS011;45534;52.690;6.268;2024-02-14T12:01:55;8.25;;;6.15;;
59659;SDS011;45534;52.690;6.268;2024-02-14T12:04:23;19.30;;;9.52;;
59659;SDS011;45534;52.690;6.268;2024-02-14T12:06:52;12.80;;;8.93;;
59659;SDS011;45534;52.690;6.268;2024-02-14T12:09:19;11.95;;;8.15;;
59659;SDS011;45534;52.690;6.268;2024-02-14T12:11:46;12.88;;;8.98;;
59659;SDS011;45534;52.690;6.268;2024-02-14T12:14:12;12.30;;;8.05;;
59659;SDS011;45534;52.690;6.268;2024-02-14T12:16:39;10.80;;;7.10;;
59659;SDS011;45534;52.690;6.268;2024-02-14T12:19:08;11.70;;;7.25;;
59659;SDS011;45534;52.690;6.268;2024-02-14T12:21:40;12.23;;;7.40;;
59659;SDS011;45534;52.690;6.268;2024-02-14T12:24:12;14.23;;;8.75;;
59659;SDS011;45534;52.690;6.268;2024-02-14T12:26:40;18.75;;;9.82;;
59659;SDS011;45534;52.690;6.268;2024-02-14T12:29:07;10.50;;;7.78;;
59659;SDS011;45534;52.690;6.268;2024-02-14T12:31:34;25.40;;;11.65;;
59659;SDS011;45534;52.690;6.268;2024-02-14T12:34:00;15.82;;;8.70;;
59659;SDS011;45534;52.690;6.268;2024-02-14T12:36:31;14.13;;;8.23;;
59659;SDS011;45534;52.690;6.268;2024-02-14T12:39:00;10.88;;;8.23;;
59659;SDS011;45534;52.690;6.268;2024-02-14T12:41:27;16.15;;;10.65;;
59659;SDS011;45534;52.690;6.268;2024-02-14T12:43:57;22.27;;;10.18;;
59659;SDS011;45534;52.690;6.268;2024-02-14T12:46:23;14.18;;;8.07;;
59659;SDS011;45534;52.690;6.268;2024-02-14T12:48:49;12.63;;;8.10;;
59659;SDS011;45534;52.690;6.268;2024-02-14T12:51:15;15.60;;;8.27;;
59659;SDS011;45534;52.690;6.268;2024-02-14T12:53:40;13.43;;;7.53;;
59659;SDS011;45534;52.690;6.268;2024-02-14T12:56:09;11.90;;;7.05;;
59659;SDS011;45534;52.690;6.268;2024-02-14T12:58:35;9.45;;;6.43;;
59659;SDS011;45534;52.690;6.268;2024-02-14T13:01:01;8.48;;;7.25;;
59659;SDS011;45534;52.690;6.268;2024-02-14T13:03:30;9.00;;;6.00;;
59659;SDS011;45534;52.690;6.268;2024-02-14T13:06:00;13.32;;;9.25;;
59659;SDS011;45534;52.690;6.268;2024-02-14T13:08:26;10.23;;;6.72;;
59659;SDS011;45534;52.690;6.268;2024-02-14T13:10:52;12.15;;;8.30;;
59659;SDS011;45534;52.690;6.268;2024-02-14T13:13:18;10.77;;;7.40;;
59659;SDS011;45534;52.690;6.268;2024-02-14T13:15:44;12.43;;;6.80;;
59659;SDS011;45534;52.690;6.268;2024-02-14T13:18:10;7.75;;;4.88;;
59659;SDS011;45534;52.690;6.268;2024-02-14T13:20:36;34.08;;;6.30;;
59659;SDS011;45534;52.690;6.268;2024-02-14T13:23:03;8.52;;;6.03;;
59659;SDS011;45534;52.690;6.268;2024-02-14T13:25:29;10.48;;;6.53;;
59659;SDS011;45534;52.690;6.268;2024-02-14T13:27:54;6.00;;;4.07;;
59659;SDS011;45534;52.690;6.268;2024-02-14T13:30:20;6.05;;;5.18;;
59659;SDS011;45534;52.690;6.268;2024-02-14T13:32:47;19.30;;;4.20;;
59659;SDS011;45534;52.690;6.268;2024-02-14T13:35:13;9.90;;;5.72;;
59659;SDS011;45534;52.690;6.268;2024-02-14T13:37:39;8.30;;;5.65;;
59659;SDS011;45534;52.690;6.268;2024-02-14T13:40:05;10.63;;;5.95;;
59659;SDS011;45534;52.690;6.268;2024-02-14T13:42:35;7.38;;;4.93;;
59659;SDS011;45534;52.690;6.268;2024-02-14T13:45:07;9.93;;;5.57;;
59659;SDS011;45534;52.690;6.268;2024-02-14T13:47:39;8.40;;;5.30;;
59659;SDS011;45534;52.690;6.268;2024-02-14T13:50:06;8.80;;;7.15;;
59659;SDS011;45534;52.690;6.268;2024-02-14T13:52:33;6.70;;;4.43;;
59659;SDS011;45534;52.690;6.268;2024-02-14T13:55:00;8.70;;;5.47;;
59659;SDS011;45534;52.690;6.268;2024-02-14T13:57:27;6.57;;;4.63;;
59659;SDS011;45534;52.690;6.268;2024-02-14T13:59:54;7.10;;;5.53;;
59659;SDS011;45534;52.690;6.268;2024-02-14T14:02:20;9.77;;;6.47;;
59659;SDS011;45534;52.690;6.268;2024-02-14T14:04:46;5.22;;;4.07;;
59659;SDS011;45534;52.690;6.268;2024-02-14T14:07:13;7.80;;;4.43;;
59659;SDS011;45534;52.690;6.268;2024-02-14T14:09:39;6.72;;;4.47;;
59659;SDS011;45534;52.690;6.268;2024-02-14T14:12:04;4.38;;;3.30;;
59659;SDS011;45534;52.690;6.268;2024-02-14T14:14:30;5.80;;;4.32;;
59659;SDS011;45534;52.690;6.268;2024-02-14T14:16:56;6.18;;;4.63;;
59659;SDS011;45534;52.690;6.268;2024-02-14T14:19:22;8.00;;;5.28;;
59659;SDS011;45534;52.690;6.268;2024-02-14T14:21:48;9.68;;;5.50;;
59659;SDS011;45534;52.690;6.268;2024-02-14T14:24:14;8.65;;;5.25;;
59659;SDS011;45534;52.690;6.268;2024-02-14T14:26:40;7.93;;;5.95;;
59659;SDS011;45534;52.690;6.268;2024-02-14T14:29:06;8.23;;;5.75;;
59659;SDS011;45534;52.690;6.268;2024-02-14T14:31:33;7.80;;;5.82;;
59659;SDS011;45534;52.690;6.268;2024-02-14T14:34:00;11.60;;;4.05;;
59659;SDS011;45534;52.690;6.268;2024-02-14T14:36:26;6.25;;;4.68;;